Time;durP1;ratioP1;P1;durP2;ratioP2;P2;SDS_P1;SDS_P2;PMS_P1;PMS_P2;Temp;Humidity;BMP_temperature;BMP_pressure;BME280_temperature;BME280_humidity;BME280_pressure;Samples;Min_cycle;Max_cycle;Signal;HPM_P1;HPM_P2
2022/06/07 00:00:55;;;;;;;;;;;;;;;10.62;42.34;95426.81;5044313;28;20110;-62
2022/06/07 00:03:21;;;;;;;;;;;;;;;10.60;42.44;95419.03;5063136;28;19988;-62
2022/06/07 00:05:47;;;;;;;;;;;;;;;10.42;43.42;95435.34;5062411;28;20000;-62
2022/06/07 00:08:12;;;;;;;;;;;;;;;10.43;42.91;95423.69;5061590;28;19998;-61
2022/06/07 00:10:37;;;;;;;;;;;;;;;10.51;42.76;95417.47;5055506;28;20621;-60
2022/06/07 00:13:03;;;;;;;;;;;;;;;10.62;42.88;95422.31;5062336;28;20455;-61
2022/06/07 00:15:28;;;;;;;;;;;;;;;10.68;43.08;95422.59;5062293;28;20025;-62
2022/06/07 00:17:54;;;;;;;;;;;;;;;10.73;42.87;95417.53;5062461;28;19995;-62
2022/06/07 00:20:20;;;;;;;;;;;;;;;10.75;42.77;95416.34;5061875;28;20462;-62
2022/06/07 00:22:45;;;;;;;;;;;;;;;10.83;42.76;95420.75;5057825;28;20538;-63
2022/06/07 00:25:11;;;;;;;;;;;;;;;10.81;42.94;95425.44;5061597;28;20027;-59
2022/06/07 00:27:36;;;;;;;;;;;;;;;10.85;43.15;95424.06;5062032;28;20481;-60
2022/06/07 00:30:01;;;;;;;;;;;;;;;10.94;42.80;95421.28;5044278;28;20526;-59
2022/06/07 00:32:27;;;;;;;;;;;;;;;11.06;42.56;95413.66;5062125;28;20092;-59
2022/06/07 00:34:52;;;;;;;;;;;;;;;11.09;42.78;95416.00;5062514;28;20460;-59
2022/06/07 00:37:17;;;;;;;;;;;;;;;11.10;42.75;95413.16;5060417;28;20701;-59
2022/06/07 00:39:42;;;;;;;;;;;;;;;11.18;43.00;95416.72;5049933;28;20520;-59
2022/06/07 00:42:08;;;;;;;;;;;;;;;11.18;42.92;95414.06;5061646;28;20251;-59
2022/06/07 00:44:44;;;;;;;;;;;;;;;11.21;43.04;95416.31;5061032;28;19992;-59
2022/06/07 00:47:13;;;;;;;;;;;;;;;11.28;42.61;95413.75;5062073;28;19981;-59
2022/06/07 00:49:43;;;;;;;;;;;;;;;11.41;42.43;95413.91;5061895;28;20583;-59
2022/06/07 00:52:09;;;;;;;;;;;;;;;11.51;42.68;95406.44;5043967;28;19987;-59
2022/06/07 00:54:34;;;;;;;;;;;;;;;11.59;42.55;95410.00;5062458;28;19971;-59
2022/06/07 00:56:59;;;;;;;;;;;;;;;11.67;42.44;95409.03;5061977;28;20230;-59
2022/06/07 00:59:25;;;;;;;;;;;;;;;11.67;42.35;95409.88;5062449;28;19980;-59
2022/06/07 01:01:50;;;;;;;;;;;;;;;11.69;42.09;95407.00;5061515;28;19986;-59
2022/06/07 01:04:16;;;;;;;;;;;;;;;11.75;42.58;95408.91;5059804;28;19992;-59
2022/06/07 01:12:10;;;;;;;;;;;;;;;11.89;42.60;95405.34;5061479;28;19999;-59
2022/06/07 01:14:35;;;;;;;;;;;;;;;11.98;42.23;95399.88;5044226;28;20040;-60
2022/06/07 01:17:00;;;;;;;;;;;;;;;12.05;42.14;95395.44;5059692;28;19994;-60
2022/06/07 01:19:27;;;;;;;;;;;;;;;12.05;42.10;95400.75;5062305;28;19965;-60
2022/06/07 01:21:52;;;;;;;;;;;;;;;12.14;42.45;95398.81;5059668;28;19993;-60
2022/06/07 01:24:17;;;;;;;;;;;;;;;12.21;42.24;95405.00;5053850;28;19988;-60
2022/06/07 01:26:43;;;;;;;;;;;;;;;12.23;42.17;95396.81;5061688;28;20042;-60
2022/06/07 01:29:08;;;;;;;;;;;;;;;12.26;42.56;95401.75;5064149;28;19995;-60
2022/06/07 01:31:34;;;;;;;;;;;;;;;12.30;42.29;95397.69;5065206;28;20531;-60
2022/06/07 01:33:59;;;;;;;;;;;;;;;12.29;42.19;95398.72;5046011;28;20483;-60
2022/06/07 01:36:24;;;;;;;;;;;;;;;12.39;42.42;95403.72;5065193;28;20001;-61
2022/06/07 01:44:17;;;;;;;;;;;;;;;12.17;42.44;95395.75;5049883;28;20416;-60
2022/06/07 01:46:43;;;;;;;;;;;;;;;12.34;42.66;95395.47;5065550;28;20241;-61
2022/06/07 01:49:08;;;;;;;;;;;;;;;12.48;42.38;95393.72;5064987;28;20023;-60
2022/06/07 01:51:33;;;;;;;;;;;;;;;12.61;42.16;95399.13;5065181;28;20371;-61
2022/06/07 01:53:59;;;;;;;;;;;;;;;12.67;41.84;95401.03;5064807;28;19991;-61
2022/06/07 01:56:24;;;;;;;;;;;;;;;12.71;42.70;95393.41;5064702;28;19980;-60
2022/06/07 01:58:49;;;;;;;;;;;;;;;12.78;42.46;95386.28;5065007;28;20301;-62
2022/06/07 02:01:14;;;;;;;;;;;;;;;12.83;42.83;95387.53;5064332;28;20042;-60
2022/06/07 02:03:40;;;;;;;;;;;;;;;12.86;42.74;95382.63;5064604;28;20271;-61
2022/06/07 02:06:06;;;;;;;;;;;;;;;12.83;41.92;95379.50;5064905;28;20086;-62
2022/06/07 02:08:31;;;;;;;;;;;;;;;12.91;42.35;95377.50;5064464;28;20021;-60
2022/06/07 02:11:00;;;;;;;;;;;;;;;12.92;42.04;95378.34;5064629;28;19959;-61
2022/06/07 02:13:25;;;;;;;;;;;;;;;12.92;42.23;95378.34;5046266;28;20083;-61
2022/06/07 02:15:50;;;;;;;;;;;;;;;12.92;42.67;95381.00;5046319;28;20091;-60
2022/06/07 02:18:16;;;;;;;;;;;;;;;12.90;42.26;95380.38;5065128;28;19978;-61
2022/06/07 02:20:41;;;;;;;;;;;;;;;12.90;42.06;95375.88;5064400;28;19989;-61
2022/06/07 02:23:08;;;;;;;;;;;;;;;12.87;42.35;95373.59;5056658;28;20471;-61
2022/06/07 02:25:35;;;;;;;;;;;;;;;12.79;42.74;95371.09;5063085;28;20374;-61
2022/06/07 02:28:00;;;;;;;;;;;;;;;12.78;42.58;95375.59;5075929;28;19996;-61
2022/06/07 02:30:26;;;;;;;;;;;;;;;12.82;42.64;95376.03;5064497;28;19999;-61
2022/06/07 02:32:51;;;;;;;;;;;;;;;12.84;42.40;95367.78;5064382;28;19991;-60
2022/06/07 02:35:16;;;;;;;;;;;;;;;12.87;42.20;95370.91;5049045;28;20040;-60
2022/06/07 02:37:41;;;;;;;;;;;;;;;12.85;42.23;95366.78;5055679;28;20041;-60
2022/06/07 02:40:07;;;;;;;;;;;;;;;12.77;42.45;95365.94;5058758;28;20659;-61
2022/06/07 02:42:32;;;;;;;;;;;;;;;12.79;42.53;95361.19;5064802;28;20354;-60
2022/06/07 02:44:57;;;;;;;;;;;;;;;12.87;41.98;95365.56;5061228;28;20040;-61
2022/06/07 02:47:23;;;;;;;;;;;;;;;12.66;42.21;95366.50;5054283;28;19964;-61
2022/06/07 02:49:48;;;;;;;;;;;;;;;12.64;42.27;95364.00;5056002;28;20172;-61
2022/06/07 02:52:13;;;;;;;;;;;;;;;12.67;41.95;95366.28;5050951;28;19984;-61
2022/06/07 02:54:39;;;;;;;;;;;;;;;12.67;42.11;95366.28;5048300;28;20398;-61
2022/06/07 02:57:04;;;;;;;;;;;;;;;12.65;42.14;95362.19;5054084;28;20341;-60
2022/06/07 02:59:29;;;;;;;;;;;;;;;12.64;41.85;95356.00;5050586;28;19961;-61
2022/06/07 03:01:54;;;;;;;;;;;;;;;12.53;42.39;95359.22;5062618;28;19966;-60
2022/06/07 03:04:20;;;;;;;;;;;;;;;12.54;41.95;95355.53;5062184;28;19981;-61
2022/06/07 03:06:45;;;;;;;;;;;;;;;12.56;41.84;95355.34;5055270;28;20069;-61
2022/06/07 03:09:10;;;;;;;;;;;;;;;12.52;41.87;95354.91;5055426;28;20036;-60
2022/06/07 03:11:35;;;;;;;;;;;;;;;12.41;42.09;95356.31;5056887;28;20473;-60
2022/06/07 03:14:01;;;;;;;;;;;;;;;12.35;41.74;95355.25;5055606;28;19959;-61
2022/06/07 03:16:26;;;;;;;;;;;;;;;12.33;41.88;95356.44;5053867;28;20132;-60
2022/06/07 03:18:51;;;;;;;;;;;;;;;12.26;41.73;95356.38;5054881;28;19969;-60
2022/06/07 03:21:16;;;;;;;;;;;;;;;12.16;41.81;95362.06;5051518;28;20240;-61
2022/06/07 03:23:42;;;;;;;;;;;;;;;12.19;41.73;95355.50;5059883;28;20083;-60
2022/06/07 03:26:09;;;;;;;;;;;;;;;12.21;41.67;95364.97;5049413;28;19983;-61
2022/06/07 03:28:35;;;;;;;;;;;;;;;12.22;41.63;95360.47;5046910;28;20011;-61
2022/06/07 03:31:04;;;;;;;;;;;;;;;12.21;41.69;95366.84;5046984;28;19965;-61
2022/06/07 03:33:30;;;;;;;;;;;;;;;12.14;41.55;95361.47;5068262;28;20258;-61
2022/06/07 03:35:55;;;;;;;;;;;;;;;12.01;41.34;95359.47;5059064;28;20074;-61
2022/06/07 03:38:20;;;;;;;;;;;;;;;11.99;41.92;95361.50;5055646;28;19965;-61
2022/06/07 03:40:45;;;;;;;;;;;;;;;12.05;41.72;95365.25;5049602;28;20457;-61
2022/06/07 03:43:11;;;;;;;;;;;;;;;12.10;41.63;95363.66;5044259;28;20567;-61
2022/06/07 03:45:36;;;;;;;;;;;;;;;12.02;41.74;95364.63;5060791;28;20005;-61
2022/06/07 03:48:02;;;;;;;;;;;;;;;12.03;42.27;95362.75;5054334;28;20322;-61
2022/06/07 03:50:27;;;;;;;;;;;;;;;12.07;42.16;95364.06;5046561;28;20516;-61
2022/06/07 03:52:52;;;;;;;;;;;;;;;12.14;42.21;95370.28;5060177;28;20518;-61
2022/06/07 03:55:17;;;;;;;;;;;;;;;12.23;42.70;95372.78;5059959;28;19971;-60
2022/06/07 03:57:42;;;;;;;;;;;;;;;12.28;42.92;95360.50;5060818;28;20096;-61
2022/06/07 04:00:08;;;;;;;;;;;;;;;12.40;42.92;95368.81;5051261;28;20002;-61
2022/06/07 04:02:33;;;;;;;;;;;;;;;12.56;42.37;95366.84;5048839;28;20013;-61
2022/06/07 04:04:59;;;;;;;;;;;;;;;12.75;41.86;95369.84;5057361;28;20309;-61
2022/06/07 04:10:08;;;;;;;;;;;;;;;13.08;40.91;95374.50;5053547;28;20449;-61
2022/06/07 04:12:33;;;;;;;;;;;;;;;13.23;40.89;95370.88;5057888;28;20087;-61
2022/06/07 04:14:58;;;;;;;;;;;;;;;13.33;40.92;95373.16;5061408;28;19976;-61
2022/06/07 04:17:24;;;;;;;;;;;;;;;13.23;41.07;95370.88;5068822;28;20026;-61
2022/06/07 04:19:49;;;;;;;;;;;;;;;13.13;41.65;95372.06;5055001;28;19981;-61
2022/06/07 04:22:14;;;;;;;;;;;;;;;12.76;41.94;95376.81;5060357;28;19977;-61
2022/06/07 04:24:40;;;;;;;;;;;;;;;12.82;42.18;95370.69;5044616;28;20379;-61
2022/06/07 04:27:05;;;;;;;;;;;;;;;13.30;40.80;95377.88;5060892;28;20332;-61
2022/06/07 04:29:30;;;;;;;;;;;;;;;13.52;40.66;95371.53;5073538;28;20038;-61
2022/06/07 04:31:56;;;;;;;;;;;;;;;13.72;39.99;95376.09;5062245;28;20014;-61
2022/06/07 04:34:22;;;;;;;;;;;;;;;13.73;40.06;95375.09;5028095;28;19968;-61
2022/06/07 04:36:47;;;;;;;;;;;;;;;13.75;39.75;95367.66;5045437;28;20020;-61
2022/06/07 04:39:12;;;;;;;;;;;;;;;13.89;40.01;95363.19;5045324;28;20008;-61
2022/06/07 04:41:37;;;;;;;;;;;;;;;13.93;39.62;95370.59;5060580;28;20065;-61
2022/06/07 04:44:03;;;;;;;;;;;;;;;13.94;39.62;95374.13;5052852;28;19996;-61
2022/06/07 04:46:28;;;;;;;;;;;;;;;14.15;39.58;95372.25;5046733;28;20072;-61
2022/06/07 04:48:54;;;;;;;;;;;;;;;14.03;39.70;95369.34;5061169;28;20659;-61
2022/06/07 04:51:37;;;;;;;;;;;;;;;14.02;40.43;95373.91;5058771;28;19962;-61
2022/06/07 04:54:02;;;;;;;;;;;;;;;13.78;40.86;95383.31;5053770;28;20392;-61
2022/06/07 04:56:28;;;;;;;;;;;;;;;13.58;41.34;95381.44;5060386;28;20140;-61
2022/06/07 04:58:54;;;;;;;;;;;;;;;13.13;42.53;95374.72;5054097;28;19968;-61
2022/06/07 05:01:20;;;;;;;;;;;;;;;12.77;43.10;95379.28;5044766;28;20368;-61
2022/06/07 05:03:45;;;;;;;;;;;;;;;12.72;43.41;95383.56;5048533;28;20014;-61
2022/06/07 05:06:19;;;;;;;;;;;;;;;12.62;43.81;95376.72;5060934;28;20045;-61
2022/06/07 05:08:45;;;;;;;;;;;;;;;13.05;42.96;95381.09;5062052;28;20286;-61
2022/06/07 05:11:10;;;;;;;;;;;;;;;13.21;42.83;95380.91;5060452;28;19962;-62
2022/06/07 05:13:36;;;;;;;;;;;;;;;13.27;43.42;95388.16;5065295;28;20077;-61
2022/06/07 05:16:02;;;;;;;;;;;;;;;13.12;43.79;95380.31;5061518;28;19981;-61
2022/06/07 05:18:27;;;;;;;;;;;;;;;13.16;43.76;95395.72;5055926;28;19990;-61
2022/06/07 05:20:52;;;;;;;;;;;;;;;13.03;43.95;95380.44;5045831;28;20672;-61
2022/06/07 05:23:17;;;;;;;;;;;;;;;12.71;44.35;95376.59;5057052;28;20386;-61
2022/06/07 05:25:58;;;;;;;;;;;;;;;12.15;45.69;95387.94;5053175;28;20052;-61
2022/06/07 05:28:24;;;;;;;;;;;;;;;12.46;45.34;95393.91;5041127;28;20640;-62
2022/06/07 05:30:49;;;;;;;;;;;;;;;12.47;45.21;95392.03;5057375;28;19964;-61
2022/06/07 05:33:14;;;;;;;;;;;;;;;12.38;45.70;95391.38;5051533;28;19993;-61
2022/06/07 05:35:39;;;;;;;;;;;;;;;11.95;46.58;95401.09;5059683;28;20000;-61
2022/06/07 05:38:05;;;;;;;;;;;;;;;11.52;47.29;95402.75;5058577;28;20443;-61
2022/06/07 05:40:30;;;;;;;;;;;;;;;12.29;46.27;95393.38;5057355;28;20262;-61
2022/06/07 05:42:56;;;;;;;;;;;;;;;12.39;45.49;95399.22;5060159;28;19967;-61
2022/06/07 05:45:22;;;;;;;;;;;;;;;12.10;46.58;95400.22;5051401;28;20097;-61
2022/06/07 05:47:47;;;;;;;;;;;;;;;11.76;46.94;95400.72;5073950;28;19977;-61
2022/06/07 05:50:12;;;;;;;;;;;;;;;12.13;46.44;95397.16;5054250;28;20120;-60
2022/06/07 05:52:40;;;;;;;;;;;;;;;11.67;47.50;95401.03;5057699;28;20316;-60
2022/06/07 05:55:06;;;;;;;;;;;;;;;11.56;48.08;95405.84;5048031;28;20324;-60
2022/06/07 05:57:31;;;;;;;;;;;;;;;12.01;47.19;95396.81;5050786;28;20418;-60
2022/06/07 05:59:56;;;;;;;;;;;;;;;12.06;47.00;95402.44;5063148;28;19987;-59
2022/06/07 06:02:21;;;;;;;;;;;;;;;11.06;48.95;95408.34;5057290;28;20053;-60
2022/06/07 06:04:47;;;;;;;;;;;;;;;11.43;49.12;95398.56;5053605;28;19987;-60
2022/06/07 06:07:12;;;;;;;;;;;;;;;12.53;46.08;95396.59;5060238;28;20068;-61
2022/06/07 06:12:21;;;;;;;;;;;;;;;12.74;45.67;95394.88;5059403;28;20351;-60
2022/06/07 06:14:46;;;;;;;;;;;;;;;13.00;44.87;95394.22;5063095;28;19972;-60
2022/06/07 06:17:12;;;;;;;;;;;;;;;11.39;48.04;95398.09;5060909;28;19994;-60
2022/06/07 06:19:37;;;;;;;;;;;;;;;12.72;45.80;95389.72;5062131;28;19991;-60
2022/06/07 06:22:02;;;;;;;;;;;;;;;13.02;44.02;95388.69;5058377;28;19993;-60
2022/06/07 06:24:27;;;;;;;;;;;;;;;12.51;45.44;95390.66;5062241;28;20075;-61
2022/06/07 06:26:54;;;;;;;;;;;;;;;12.98;44.92;95400.78;5059503;28;20492;-60
2022/06/07 06:29:19;;;;;;;;;;;;;;;13.25;43.85;95393.69;5063251;28;20018;-60
2022/06/07 06:31:46;;;;;;;;;;;;;;;13.31;44.16;95392.91;5062566;28;20492;-60
2022/06/07 06:34:12;;;;;;;;;;;;;;;13.17;43.83;95394.72;5053482;28;19966;-61
2022/06/07 06:36:39;;;;;;;;;;;;;;;13.35;43.06;95401.34;5050775;28;19999;-60
2022/06/07 06:39:05;;;;;;;;;;;;;;;13.09;43.95;95392.19;5058088;28;20121;-60
2022/06/07 06:41:31;;;;;;;;;;;;;;;12.82;44.43;95400.06;5056534;28;19983;-60
2022/06/07 06:43:58;;;;;;;;;;;;;;;13.02;44.09;95402.84;5064034;28;20008;-60
2022/06/07 06:46:27;;;;;;;;;;;;;;;13.21;43.57;95402.31;5064377;28;20024;-60
2022/06/07 06:48:52;;;;;;;;;;;;;;;12.81;44.68;95395.72;5060384;28;19986;-60
2022/06/07 06:51:18;;;;;;;;;;;;;;;13.06;43.76;95395.28;5064269;28;20057;-60
2022/06/07 06:53:44;;;;;;;;;;;;;;;13.06;44.25;95392.59;5061346;28;20436;-60
2022/06/07 06:56:09;;;;;;;;;;;;;;;12.81;45.69;95395.72;5057534;28;20012;-60
2022/06/07 06:58:35;;;;;;;;;;;;;;;13.00;43.95;95398.75;5062754;28;19969;-59
2022/06/07 07:01:04;;;;;;;;;;;;;;;12.53;44.71;95391.28;5053177;28;19987;-60
2022/06/07 07:03:29;;;;;;;;;;;;;;;12.90;44.98;95393.72;5053249;28;20369;-61
2022/06/07 07:05:56;;;;;;;;;;;;;;;13.01;43.92;95395.03;5067587;28;19994;-60
2022/06/07 07:08:22;;;;;;;;;;;;;;;13.34;42.96;95398.84;5057531;28;19999;-60
2022/06/07 07:10:47;;;;;;;;;;;;;;;13.49;42.98;95396.03;5052891;28;20360;-60
2022/06/07 07:13:12;;;;;;;;;;;;;;;13.33;42.52;95392.72;5053890;28;19984;-60
2022/06/07 07:15:38;;;;;;;;;;;;;;;13.42;43.13;95396.00;5043814;28;19980;-61
2022/06/07 07:18:03;;;;;;;;;;;;;;;13.65;41.44;95395.66;5048353;28;20003;-60
2022/06/07 07:20:28;;;;;;;;;;;;;;;13.34;41.17;95396.19;5066030;28;19987;-59
2022/06/07 07:22:54;;;;;;;;;;;;;;;13.67;41.83;95390.09;5044305;28;19963;-60
2022/06/07 07:25:20;;;;;;;;;;;;;;;12.73;42.41;95391.41;5052385;28;20000;-60
2022/06/07 07:27:45;;;;;;;;;;;;;;;12.14;43.43;95404.97;5054393;28;19962;-59
2022/06/07 07:30:10;;;;;;;;;;;;;;;12.89;43.22;95395.56;5050468;28;19998;-60
2022/06/07 07:32:36;;;;;;;;;;;;;;;12.02;45.12;95393.13;5051883;28;20035;-60
2022/06/07 07:35:01;;;;;;;;;;;;;;;12.45;42.76;95383.41;5059149;28;19992;-61
2022/06/07 07:37:26;;;;;;;;;;;;;;;13.62;41.31;95395.22;5044904;28;19999;-60
2022/06/07 07:39:51;;;;;;;;;;;;;;;13.60;41.99;95389.25;5061258;28;20354;-59
2022/06/07 07:42:17;;;;;;;;;;;;;;;13.66;41.80;95385.75;5032584;28;20038;-58
2022/06/07 07:44:42;;;;;;;;;;;;;;;13.53;42.38;95387.38;5057200;28;20004;-57
2022/06/07 07:47:07;;;;;;;;;;;;;;;12.85;41.09;95402.31;5056437;28;20080;-59
2022/06/07 07:49:32;;;;;;;;;;;;;;;12.46;42.67;95385.06;5052600;28;20441;-59
2022/06/07 07:51:58;;;;;;;;;;;;;;;13.28;42.57;95384.44;5055379;28;20446;-60
2022/06/07 07:54:23;;;;;;;;;;;;;;;13.47;42.28;95379.34;5049454;28;20064;-59
2022/06/07 07:56:48;;;;;;;;;;;;;;;13.64;41.70;95382.47;5045764;28;20007;-60
2022/06/07 07:59:14;;;;;;;;;;;;;;;13.14;42.76;95370.22;5059311;28;19978;-61
2022/06/07 08:01:39;;;;;;;;;;;;;;;13.08;41.62;95376.38;5052968;28;20530;-61
2022/06/07 08:04:05;;;;;;;;;;;;;;;13.73;40.33;95361.72;5036147;28;21211;-61
2022/06/07 08:06:30;;;;;;;;;;;;;;;13.30;40.71;95374.38;5047427;28;19984;-60
2022/06/07 08:08:56;;;;;;;;;;;;;;;13.67;40.38;95377.53;5051066;28;20072;-60
2022/06/07 08:11:22;;;;;;;;;;;;;;;14.13;39.47;95367.09;5051049;28;20013;-59
2022/06/07 08:13:48;;;;;;;;;;;;;;;13.49;40.02;95377.31;5066029;28;19989;-58
2022/06/07 08:16:13;;;;;;;;;;;;;;;14.25;39.17;95370.00;5052393;28;19994;-60
2022/06/07 08:18:39;;;;;;;;;;;;;;;14.30;39.56;95372.84;5057699;28;19980;-60
2022/06/07 08:21:05;;;;;;;;;;;;;;;13.55;40.27;95373.81;5056927;28;19989;-60
2022/06/07 08:23:31;;;;;;;;;;;;;;;14.58;38.29;95358.38;5055231;28;20009;-60
2022/06/07 08:25:56;;;;;;;;;;;;;;;14.72;37.20;95369.88;5051481;28;20084;-60
2022/06/07 08:28:21;;;;;;;;;;;;;;;14.36;38.01;95379.22;5045189;28;19977;-60
2022/06/07 08:30:47;;;;;;;;;;;;;;;14.24;39.00;95370.19;5056922;28;20356;-60
2022/06/07 08:38:39;;;;;;;;;;;;;;;15.42;36.11;95358.69;5052404;28;19965;-60
2022/06/07 08:41:05;;;;;;;;;;;;;;;15.04;35.73;95357.63;5050474;28;20327;-60
2022/06/07 08:43:30;;;;;;;;;;;;;;;15.68;36.32;95363.09;5069175;28;19960;-60
2022/06/07 08:45:56;;;;;;;;;;;;;;;15.00;37.21;95375.19;5056279;28;20497;-60
2022/06/07 08:48:26;;;;;;;;;;;;;;;15.01;36.81;95369.63;5072077;28;20300;-60
2022/06/07 08:50:57;;;;;;;;;;;;;;;14.97;37.18;95365.72;5055093;28;20687;-60
2022/06/07 08:53:28;;;;;;;;;;;;;;;15.70;35.84;95366.38;5062120;28;20373;-60
2022/06/07 08:55:56;;;;;;;;;;;;;;;15.32;35.92;95369.88;5068389;28;19991;-60
2022/06/07 08:58:28;;;;;;;;;;;;;;;14.65;36.23;95370.94;5062475;28;19962;-60
2022/06/07 09:00:57;;;;;;;;;;;;;;;14.43;36.40;95363.97;5056885;28;20520;-61
2022/06/07 09:03:22;;;;;;;;;;;;;;;14.16;38.17;95369.38;5057518;28;20048;-61
2022/06/07 09:05:54;;;;;;;;;;;;;;;14.68;36.39;95355.25;5061582;28;20072;-60
2022/06/07 09:08:19;;;;;;;;;;;;;;;14.46;37.46;95360.06;5055271;28;20137;-60
2022/06/07 09:13:29;;;;;;;;;;;;;;;15.02;37.87;95351.69;5061746;28;19995;-62
2022/06/07 09:15:55;;;;;;;;;;;;;;;14.79;36.61;95350.31;5038734;28;19982;-60
2022/06/07 09:18:21;;;;;;;;;;;;;;;15.18;36.62;95353.03;5055563;28;20078;-61
2022/06/07 09:20:48;;;;;;;;;;;;;;;16.15;34.92;95355.72;5059579;28;20008;-61
2022/06/07 09:23:13;;;;;;;;;;;;;;;15.44;36.38;95372.72;5023622;28;19958;-61
2022/06/07 09:25:48;;;;;;;;;;;;;;;16.16;34.67;95354.69;5036735;28;20086;-60
2022/06/07 09:28:15;;;;;;;;;;;;;;;15.93;34.86;95354.25;5040400;28;20006;-61
2022/06/07 09:30:43;;;;;;;;;;;;;;;15.69;36.35;95347.81;5052246;28;19954;-60
2022/06/07 09:33:28;;;;;;;;;;;;;;;14.84;37.47;95355.84;5049780;28;20343;-61
2022/06/07 09:35:59;;;;;;;;;;;;;;;14.34;38.26;95360.69;5057412;28;19992;-61
2022/06/07 09:38:27;;;;;;;;;;;;;;;14.65;38.96;95357.53;5049078;28;19980;-60
2022/06/07 09:40:52;;;;;;;;;;;;;;;14.79;38.58;95358.34;5054488;28;20034;-60
2022/06/07 09:43:18;;;;;;;;;;;;;;;14.60;38.88;95347.47;5057289;28;20621;-60
2022/06/07 09:45:43;;;;;;;;;;;;;;;14.99;38.12;95350.22;5028207;28;20023;-60
2022/06/07 09:48:19;;;;;;;;;;;;;;;15.53;37.72;95359.88;5057279;28;19985;-60
2022/06/07 09:50:48;;;;;;;;;;;;;;;16.15;36.68;95345.81;5057753;28;20191;-60
2022/06/07 09:53:15;;;;;;;;;;;;;;;14.93;38.06;95359.94;5039113;28;20448;-60
2022/06/07 09:55:42;;;;;;;;;;;;;;;15.50;37.23;95342.31;5054584;28;20007;-60
2022/06/07 09:58:23;;;;;;;;;;;;;;;15.19;38.56;95333.22;5042696;28;20553;-60
2022/06/07 10:00:50;;;;;;;;;;;;;;;17.60;34.11;95333.00;5037221;28;20269;-61
2022/06/07 10:03:24;;;;;;;;;;;;;;;17.34;33.34;95328.81;5050166;28;19988;-61
2022/06/07 10:05:54;;;;;;;;;;;;;;;17.17;33.41;95334.84;5040177;28;20388;-61
2022/06/07 10:08:22;;;;;;;;;;;;;;;16.64;36.41;95348.66;5039152;28;20489;-61
2022/06/07 10:10:51;;;;;;;;;;;;;;;16.76;35.79;95331.78;5058427;28;20009;-60
2022/06/07 10:13:22;;;;;;;;;;;;;;;16.10;36.29;95348.31;5045575;28;20031;-61
2022/06/07 10:15:48;;;;;;;;;;;;;;;15.72;37.37;95336.66;5051936;28;20406;-60
2022/06/07 10:18:19;;;;;;;;;;;;;;;15.52;38.33;95337.56;5039121;28;20132;-57
2022/06/07 10:20:54;;;;;;;;;;;;;;;15.53;37.46;95351.81;5055808;28;19986;-62
2022/06/07 10:23:23;;;;;;;;;;;;;;;16.46;34.76;95335.22;5050224;28;19966;-61
2022/06/07 10:26:02;;;;;;;;;;;;;;;15.82;35.85;95328.94;5051890;28;19994;-61
2022/06/07 10:28:32;;;;;;;;;;;;;;;16.48;34.68;95330.41;5066105;28;19984;-61
2022/06/07 10:31:24;;;;;;;;;;;;;;;15.10;37.18;95344.19;5065835;28;20434;-60
2022/06/07 10:33:50;;;;;;;;;;;;;;;15.60;36.35;95337.34;5032432;28;20282;-60
2022/06/07 10:36:50;;;;;;;;;;;;;;;16.33;34.70;95325.38;5046171;28;19992;-60
2022/06/07 10:39:31;;;;;;;;;;;;;;;15.06;36.27;95326.09;4993312;28;19965;-60
2022/06/07 10:41:56;;;;;;;;;;;;;;;15.78;35.52;95334.94;5044519;28;19979;-59
2022/06/07 10:44:21;;;;;;;;;;;;;;;15.82;35.36;95333.47;5056231;28;19987;-60
2022/06/07 10:46:47;;;;;;;;;;;;;;;15.72;34.96;95321.38;5060002;28;19994;-60
2022/06/07 10:49:23;;;;;;;;;;;;;;;15.56;36.46;95333.47;5050498;28;20014;-59
2022/06/07 10:54:54;;;;;;;;;;;;;;;15.51;36.02;95341.31;5039167;28;19967;-60
2022/06/07 10:57:21;;;;;;;;;;;;;;;15.50;35.95;95342.31;5049726;28;19982;-61
2022/06/07 10:59:47;;;;;;;;;;;;;;;15.52;36.48;95340.25;5049014;28;20415;-61
2022/06/07 11:02:24;;;;;;;;;;;;;;;14.85;38.08;95344.94;5054775;28;19955;-60
2022/06/07 11:10:36;;;;;;;;;;;;;;;16.22;36.66;95341.19;5036483;28;20411;-61
2022/06/07 11:13:07;;;;;;;;;;;;;;;16.48;36.00;95333.94;5056962;28;20281;-60
2022/06/07 11:15:52;;;;;;;;;;;;;;;16.91;35.21;95334.09;5060403;28;19962;-61
2022/06/07 11:18:21;;;;;;;;;;;;;;;16.49;36.84;95332.88;5016662;28;20023;-64
2022/06/07 11:21:08;;;;;;;;;;;;;;;16.97;34.82;95319.75;5049281;28;20040;-62
2022/06/07 11:23:34;;;;;;;;;;;;;;;17.67;34.78;95333.72;5040037;28;19944;-62
2022/06/07 11:26:14;;;;;;;;;;;;;;;17.48;33.63;95332.97;5028015;28;19970;-61
2022/06/07 11:28:39;;;;;;;;;;;;;;;17.20;33.42;95328.19;5060830;28;19977;-60
2022/06/07 11:31:23;;;;;;;;;;;;;;;17.78;33.36;95317.81;5055355;28;19969;-58
2022/06/07 11:33:51;;;;;;;;;;;;;;;17.56;33.66;95321.03;5056329;28;20417;-57
2022/06/07 11:36:35;;;;;;;;;;;;;;;17.15;33.95;95327.00;5052205;28;20376;-59
2022/06/07 11:39:16;;;;;;;;;;;;;;;18.33;33.11;95312.38;5045794;28;20059;-59
2022/06/07 11:41:44;;;;;;;;;;;;;;;18.75;31.73;95312.22;5050333;28;20034;-60
2022/06/07 11:44:12;;;;;;;;;;;;;;;18.34;31.86;95309.44;5055386;28;20501;-60
2022/06/07 11:46:40;;;;;;;;;;;;;;;16.30;35.60;95323.13;5052041;28;19960;-57
2022/06/07 11:49:18;;;;;;;;;;;;;;;16.45;35.22;95314.78;5051872;28;19979;-58
2022/06/07 11:52:02;;;;;;;;;;;;;;;16.06;35.31;95320.25;5057303;28;20436;-58
2022/06/07 11:54:28;;;;;;;;;;;;;;;16.45;35.31;95312.88;5047961;28;20316;-57
2022/06/07 11:56:58;;;;;;;;;;;;;;;16.72;35.16;95309.06;5070539;28;19979;-58
2022/06/07 11:59:23;;;;;;;;;;;;;;;17.62;33.80;95311.22;5069906;28;20434;-57
2022/06/07 12:02:08;;;;;;;;;;;;;;;17.36;34.38;95303.31;5052676;28;20075;-58
2022/06/07 12:04:37;;;;;;;;;;;;;;;17.52;33.20;95301.03;5047627;28;20359;-56
2022/06/07 12:07:19;;;;;;;;;;;;;;;17.91;31.95;95297.94;5053134;28;20023;-62
2022/06/07 12:09:49;;;;;;;;;;;;;;;16.54;34.21;95304.53;5065442;28;19981;-56
2022/06/07 12:12:18;;;;;;;;;;;;;;;16.86;34.74;95297.13;5051036;28;19977;-58
2022/06/07 12:14:44;;;;;;;;;;;;;;;17.37;33.72;95298.78;5059188;28;19958;-59
2022/06/07 12:17:25;;;;;;;;;;;;;;;17.02;33.88;95298.38;5027428;28;19989;-57
2022/06/07 12:19:50;;;;;;;;;;;;;;;17.65;33.78;95286.56;5043819;28;20441;-57
2022/06/07 12:22:17;;;;;;;;;;;;;;;18.63;32.05;95289.88;5053561;28;19961;-60
2022/06/07 12:24:43;;;;;;;;;;;;;;;19.02;31.52;95297.38;5057748;28;20017;-58
2022/06/07 12:27:26;;;;;;;;;;;;;;;17.46;32.67;95289.31;5050715;28;19968;-59
2022/06/07 12:29:54;;;;;;;;;;;;;;;18.54;31.93;95281.28;5053905;28;19965;-60
2022/06/07 12:32:20;;;;;;;;;;;;;;;18.98;31.78;95283.56;5050184;28;20051;-59
2022/06/07 12:34:45;;;;;;;;;;;;;;;18.67;31.81;95275.66;5049078;28;19942;-60
2022/06/07 12:37:11;;;;;;;;;;;;;;;17.33;34.48;95294.91;5048631;28;20019;-60
2022/06/07 12:39:45;;;;;;;;;;;;;;;17.97;33.01;95282.72;5047317;28;19951;-58
2022/06/07 12:42:15;;;;;;;;;;;;;;;17.39;34.57;95281.34;5059863;28;19951;-58
2022/06/07 12:44:42;;;;;;;;;;;;;;;18.99;32.41;95277.09;5053374;28;19973;-59
2022/06/07 12:47:18;;;;;;;;;;;;;;;18.43;32.55;95280.25;5048576;28;19970;-57
2022/06/07 12:49:44;;;;;;;;;;;;;;;19.12;31.49;95277.84;5070162;28;20000;-60
2022/06/07 12:52:13;;;;;;;;;;;;;;;18.74;31.57;95280.94;5047031;28;20053;-58
2022/06/07 12:54:38;;;;;;;;;;;;;;;18.62;32.15;95282.81;5050333;28;20289;-59
2022/06/07 12:57:12;;;;;;;;;;;;;;;18.79;32.11;95270.25;5048608;28;20017;-59
2022/06/07 13:00:00;;;;;;;;;;;;;;;17.67;33.27;95279.88;5060986;28;19944;-60
2022/06/07 13:02:38;;;;;;;;;;;;;;;17.19;33.84;95295.06;5046866;28;20012;-59
2022/06/07 13:05:08;;;;;;;;;;;;;;;17.23;34.69;95285.50;5057504;28;20444;-59
2022/06/07 13:07:41;;;;;;;;;;;;;;;17.06;34.80;95279.09;5032497;28;19982;-60
2022/06/07 13:10:07;;;;;;;;;;;;;;;16.85;34.72;95279.34;5043262;28;19999;-57
2022/06/07 13:12:33;;;;;;;;;;;;;;;17.02;34.33;95298.38;5045426;28;19968;-59
2022/06/07 13:14:59;;;;;;;;;;;;;;;17.11;33.94;95281.91;5054259;28;20392;-60
2022/06/07 13:17:27;;;;;;;;;;;;;;;17.44;33.65;95279.84;5045294;28;19973;-59
2022/06/07 13:19:53;;;;;;;;;;;;;;;17.72;34.27;95265.72;5049285;28;19957;-58
2022/06/07 13:22:18;;;;;;;;;;;;;;;17.12;35.10;95279.03;5055836;28;20018;-59